Ber Learned — 2GNG3 — position and weather

sailwx.info

Track history (hours):
 
Tides and Currents Weather Stations Pressure Air Temp Water Temp Dewpoint Dewpoint Depression Visibility Wind Speed Wind Dir Waves Ship Positions

Ber Learned

Last reported at 2018-Feb-14 18:55 UTC. Time now 2018-Feb-23 12:41 UTC.
Position N 36°21' E 014°56'.
Warning: this ship's position is 8 days out of date.

Length 335 m; draft 12.3 m.

Type: Cargo ship. MMSI: 235077639.

Date/timePositionNaut miles runAvg speedWind from/ knotsBaromVisibWave heightAir tempDewpointWater temp
2018-Feb-14 18:55N 36°21' E 014°56'921.4
2018-Feb-14 18:30N 36°23' E 014°45'1121.3
2018-Feb-14 18:00N 36°26' E 014°33'1121.4
2018-Feb-14 17:29N 36°29' E 014°20'1020.7
2018-Feb-14 17:00N 36°32' E 014°08'1120.0
2018-Feb-14 16:28N 36°36' E 013°55'920.1
2018-Feb-14 16:00N 36°39' E 013°44'1020.0
2018-Feb-14 15:29N 36°42' E 013°32'1020.4
2018-Feb-14 15:00N 36°45' E 013°20'89720.0
2018-Feb-12 18:09N 35°59' W 005°13'321.6
2018-Feb-12 18:00N 35°59' W 005°16'97020.4
2018-Feb-10 18:29N 39°24' W 025°15'7620.3
2018-Feb-10 14:43N 39°35' W 026°53'1520.8
2018-Feb-10 14:01N 39°36' W 027°12'020.2
2018-Feb-10 14:00N 39°36' W 027°12'1020.6
2018-Feb-10 13:30N 39°37' W 027°25'1020.9
2018-Feb-10 13:00N 39°39' W 027°39'1020.6
2018-Feb-10 12:30N 39°40' W 027°52'1020.5
2018-Feb-10 12:00N 39°42' W 028°05'1020.1
2018-Feb-10 11:30N 39°43' W 028°18'1020.3
2018-Feb-10 11:00N 39°44' W 028°31'1020.4
2018-Feb-10 10:30N 39°45' W 028°44'1020.5
2018-Feb-10 10:00N 39°46' W 028°58'1020.4
2018-Feb-10 09:30N 39°47' W 029°11'1020.4
2018-Feb-10 09:00N 39°48' W 029°24'1020.5
2018-Feb-10 08:30N 39°50' W 029°37'1020.5
2018-Feb-10 08:00N 39°51' W 029°50'1020.7
2018-Feb-10 07:30N 39°52' W 030°04'1120.5
2018-Feb-10 06:59N 39°53' W 030°18'1420.4
2018-Feb-10 06:17N 39°54' W 030°36'820.7
2018-Feb-10 05:55N 39°55' W 030°46'4320.5
2018-Feb-10 03:50N 39°58' W 031°42'720.1
2018-Feb-10 03:29N 39°58' W 031°51'  
2018-Feb-05 17:39N 36°49' W 075°41'2 9.3
2018-Feb-05 17:28N 36°48' W 075°43'18 8.9
2018-Feb-05 15:30N 36°57' W 076°02'713.6
2018-Feb-05 15:00N 36°59' W 076°10'712.6
2018-Feb-05 14:29N 36°60' W 076°18'4 8.3
2018-Feb-05 14:00N 36°56' W 076°20'3 6.8
2018-Feb-05 13:30N 36°53' W 076°21'0 0.3
2018-Feb-05 12:29N 36°52' W 076°21'0 0.0
2018-Feb-05 11:59N 36°52' W 076°21'0 0.0
2018-Feb-05 11:29N 36°52' W 076°21'0 0.0
2018-Feb-05 10:59N 36°52' W 076°21'0 0.0
2018-Feb-05 10:29N 36°52' W 076°21'0 0.0
2018-Feb-05 09:59N 36°52' W 076°21'0 0.0
2018-Feb-05 09:29N 36°52' W 076°21'0 0.0
2018-Feb-05 08:59N 36°52' W 076°21'0 0.0
2018-Feb-05 08:29N 36°52' W 076°21'0 0.0
2018-Feb-05 07:59N 36°52' W 076°21'0 0.0
2018-Feb-05 07:29N 36°52' W 076°21'0 0.0
2018-Feb-05 06:56N 36°52' W 076°21'0 0.0
2018-Feb-05 06:29N 36°52' W 076°21'0 0.0
2018-Feb-05 05:29N 36°52' W 076°21'0 0.0
2018-Feb-05 04:59N 36°52' W 076°21'0 0.0
2018-Feb-05 04:29N 36°52' W 076°21'0 0.0
2018-Feb-05 03:59N 36°52' W 076°21'0 0.0
2018-Feb-05 03:29N 36°52' W 076°21'0 0.0
2018-Feb-05 02:59N 36°52' W 076°21'0 0.0
2018-Feb-05 02:26N 36°52' W 076°21'0 0.0
2018-Feb-05 01:56N 36°52' W 076°21'0 0.0
2018-Feb-05 01:20N 36°52' W 076°21'0 0.1
2018-Feb-05 00:59N 36°52' W 076°21'0 0.0
2018-Feb-05 00:29N 36°52' W 076°21'0 0.0
2018-Feb-04 23:56N 36°52' W 076°21'0 0.0
2018-Feb-04 23:20N 36°52' W 076°21'0 0.0
2018-Feb-04 22:50N 36°52' W 076°21'0 0.0
2018-Feb-04 22:26N 36°52' W 076°21'0 0.0
2018-Feb-04 21:59N 36°52' W 076°21'0 0.0
2018-Feb-04 21:29N 36°52' W 076°21'0 0.0
2018-Feb-04 20:59N 36°52' W 076°21'0 0.0
2018-Feb-04 19:59N 36°52' W 076°21'0 0.0
2018-Feb-04 19:29N 36°52' W 076°21'0 0.0
2018-Feb-04 19:00N 36°52' W 076°21'  
Track history (hours):
 
Tides and Currents Weather Stations Pressure Air Temp Water Temp Dewpoint Dewpoint Depression Visibility Wind Speed Wind Dir Waves Ship Positions

Ber Learned

Last reported at 2018-Feb-14 18:55 UTC. Time now 2018-Feb-23 12:41 UTC.
Position N 36°21' E 014°56'.
Warning: this ship's position is 8 days out of date.

Length 335 m; draft 12.3 m.

Type: Cargo ship. MMSI: 235077639.

Date/timePositionNaut miles runAvg speedWind from/ knotsBaromVisibWave heightAir tempDewpointWater temp
2018-Feb-14 18:55N 36°21' E 014°56'921.4
2018-Feb-14 18:30N 36°23' E 014°45'1121.3
2018-Feb-14 18:00N 36°26' E 014°33'1121.4
2018-Feb-14 17:29N 36°29' E 014°20'1020.7
2018-Feb-14 17:00N 36°32' E 014°08'1120.0
2018-Feb-14 16:28N 36°36' E 013°55'920.1
2018-Feb-14 16:00N 36°39' E 013°44'1020.0
2018-Feb-14 15:29N 36°42' E 013°32'1020.4
2018-Feb-14 15:00N 36°45' E 013°20'89720.0
2018-Feb-12 18:09N 35°59' W 005°13'321.6
2018-Feb-12 18:00N 35°59' W 005°16'97020.4
2018-Feb-10 18:29N 39°24' W 025°15'7620.3
2018-Feb-10 14:43N 39°35' W 026°53'1520.8
2018-Feb-10 14:01N 39°36' W 027°12'020.2
2018-Feb-10 14:00N 39°36' W 027°12'1020.6
2018-Feb-10 13:30N 39°37' W 027°25'1020.9
2018-Feb-10 13:00N 39°39' W 027°39'1020.6
2018-Feb-10 12:30N 39°40' W 027°52'1020.5
2018-Feb-10 12:00N 39°42' W 028°05'1020.1
2018-Feb-10 11:30N 39°43' W 028°18'1020.3
2018-Feb-10 11:00N 39°44' W 028°31'1020.4
2018-Feb-10 10:30N 39°45' W 028°44'1020.5
2018-Feb-10 10:00N 39°46' W 028°58'1020.4
2018-Feb-10 09:30N 39°47' W 029°11'1020.4
2018-Feb-10 09:00N 39°48' W 029°24'1020.5
2018-Feb-10 08:30N 39°50' W 029°37'1020.5
2018-Feb-10 08:00N 39°51' W 029°50'1020.7
2018-Feb-10 07:30N 39°52' W 030°04'1120.5
2018-Feb-10 06:59N 39°53' W 030°18'1420.4
2018-Feb-10 06:17N 39°54' W 030°36'820.7
2018-Feb-10 05:55N 39°55' W 030°46'4320.5
2018-Feb-10 03:50N 39°58' W 031°42'720.1
2018-Feb-10 03:29N 39°58' W 031°51'  
2018-Feb-05 17:39N 36°49' W 075°41'2 9.3
2018-Feb-05 17:28N 36°48' W 075°43'18 8.9
2018-Feb-05 15:30N 36°57' W 076°02'713.6
2018-Feb-05 15:00N 36°59' W 076°10'712.6
2018-Feb-05 14:29N 36°60' W 076°18'4 8.3
2018-Feb-05 14:00N 36°56' W 076°20'3 6.8
2018-Feb-05 13:30N 36°53' W 076°21'0 0.3
2018-Feb-05 12:29N 36°52' W 076°21'0 0.0
2018-Feb-05 11:59N 36°52' W 076°21'0 0.0
2018-Feb-05 11:29N 36°52' W 076°21'0 0.0
2018-Feb-05 10:59N 36°52' W 076°21'0 0.0
2018-Feb-05 10:29N 36°52' W 076°21'0 0.0
2018-Feb-05 09:59N 36°52' W 076°21'0 0.0
2018-Feb-05 09:29N 36°52' W 076°21'0 0.0
2018-Feb-05 08:59N 36°52' W 076°21'0 0.0
2018-Feb-05 08:29N 36°52' W 076°21'0 0.0
2018-Feb-05 07:59N 36°52' W 076°21'0 0.0
2018-Feb-05 07:29N 36°52' W 076°21'0 0.0
2018-Feb-05 06:56N 36°52' W 076°21'0 0.0
2018-Feb-05 06:29N 36°52' W 076°21'0 0.0
2018-Feb-05 05:29N 36°52' W 076°21'0 0.0
2018-Feb-05 04:59N 36°52' W 076°21'0 0.0
2018-Feb-05 04:29N 36°52' W 076°21'0 0.0
2018-Feb-05 03:59N 36°52' W 076°21'0 0.0
2018-Feb-05 03:29N 36°52' W 076°21'0 0.0
2018-Feb-05 02:59N 36°52' W 076°21'0 0.0
2018-Feb-05 02:26N 36°52' W 076°21'0 0.0
2018-Feb-05 01:56N 36°52' W 076°21'0 0.0
2018-Feb-05 01:20N 36°52' W 076°21'0 0.1
2018-Feb-05 00:59N 36°52' W 076°21'0 0.0
2018-Feb-05 00:29N 36°52' W 076°21'0 0.0
2018-Feb-04 23:56N 36°52' W 076°21'0 0.0
2018-Feb-04 23:20N 36°52' W 076°21'0 0.0
2018-Feb-04 22:50N 36°52' W 076°21'0 0.0
2018-Feb-04 22:26N 36°52' W 076°21'0 0.0
2018-Feb-04 21:59N 36°52' W 076°21'0 0.0
2018-Feb-04 21:29N 36°52' W 076°21'0 0.0
2018-Feb-04 20:59N 36°52' W 076°21'0 0.0
2018-Feb-04 19:59N 36°52' W 076°21'0 0.0
2018-Feb-04 19:29N 36°52' W 076°21'0 0.0
2018-Feb-04 19:00N 36°52' W 076°21'  

Dump ship's entire track history